createdAt,value
2023-11-26T00:00:02.095Z,3.70
2023-11-26T00:02:30.311Z,3.70
2023-11-26T00:04:58.555Z,3.70
2023-11-26T00:07:26.606Z,3.70
2023-11-26T00:09:54.711Z,3.70
2023-11-26T00:12:25.075Z,3.70
2023-11-26T00:14:53.469Z,3.60
2023-11-26T00:17:22.574Z,3.70
2023-11-26T00:19:51.482Z,3.70
2023-11-26T00:22:19.517Z,3.70
2023-11-26T00:24:47.587Z,3.70
2023-11-26T00:27:16.200Z,3.70
2023-11-26T00:29:45.799Z,3.60
2023-11-26T00:32:13.974Z,3.60
2023-11-26T00:34:42.063Z,3.60
2023-11-26T00:37:10.291Z,3.50
2023-11-26T00:39:38.336Z,3.60
2023-11-26T00:42:06.789Z,3.60
2023-11-26T00:44:34.809Z,3.50
2023-11-26T00:47:04.333Z,3.50
2023-11-26T00:49:32.525Z,3.60
2023-11-26T00:52:00.505Z,3.60
2023-11-26T00:54:29.925Z,3.60
2023-11-26T00:56:58.170Z,3.60
2023-11-26T00:59:26.232Z,3.60
2023-11-26T01:01:54.968Z,3.60
2023-11-26T01:04:24.474Z,3.50
2023-11-26T01:06:52.555Z,3.50
2023-11-26T01:09:20.560Z,3.60
2023-11-26T01:11:48.569Z,3.60
2023-11-26T01:14:16.631Z,3.60
2023-11-26T01:16:45.060Z,3.60
2023-11-26T01:19:13.190Z,3.60
2023-11-26T01:21:42.696Z,3.60
2023-11-26T01:24:11.754Z,3.60
2023-11-26T01:26:40.588Z,3.60
2023-11-26T01:29:09.886Z,3.60
2023-11-26T01:31:37.905Z,3.60
2023-11-26T01:34:06.078Z,3.50
2023-11-26T01:36:34.259Z,3.40
2023-11-26T01:39:04.048Z,3.40
2023-11-26T01:41:32.135Z,3.40
2023-11-26T01:44:00.219Z,3.40
2023-11-26T01:46:29.509Z,3.40
2023-11-26T01:48:57.866Z,3.40
2023-11-26T01:51:28.857Z,3.40
2023-11-26T01:53:57.975Z,3.40
2023-11-26T01:56:28.010Z,3.30
2023-11-26T01:58:58.071Z,3.40
2023-11-26T02:01:26.801Z,3.30
2023-11-26T02:03:55.000Z,3.30
2023-11-26T02:06:23.254Z,3.30
2023-11-26T02:08:51.542Z,3.30
2023-11-26T02:11:19.682Z,3.30
2023-11-26T02:13:50.781Z,3.30
2023-11-26T02:16:18.968Z,3.20
2023-11-26T02:18:48.145Z,3.20
2023-11-26T02:21:16.336Z,3.20
2023-11-26T02:23:47.528Z,3.20
2023-11-26T02:26:17.204Z,3.10
2023-11-26T02:28:45.645Z,3.10
2023-11-26T02:31:13.701Z,3.10
2023-11-26T02:33:54.471Z,3.10
2023-11-26T02:36:26.841Z,3.10
2023-11-26T02:38:55.999Z,3.10
2023-11-26T02:41:25.942Z,3.00
2023-11-26T02:43:54.827Z,3.10
2023-11-26T02:46:23.345Z,3.10
2023-11-26T02:48:51.541Z,3.10
2023-11-26T02:51:19.846Z,3.10
2023-11-26T02:53:47.881Z,3.10
2023-11-26T02:56:16.072Z,3.10
2023-11-26T02:58:45.588Z,3.20
2023-11-26T03:01:19.436Z,3.20
2023-11-26T03:03:49.175Z,3.20
2023-11-26T03:06:18.233Z,3.20
2023-11-26T03:08:46.352Z,3.30
2023-11-26T03:11:34.320Z,3.30
2023-11-26T03:14:03.706Z,3.30
2023-11-26T03:16:31.855Z,3.30
2023-11-26T03:18:59.939Z,3.30
2023-11-26T03:21:30.229Z,3.40
2023-11-26T03:23:59.264Z,3.40
2023-11-26T03:26:28.311Z,3.40
2023-11-26T03:28:57.075Z,3.50
2023-11-26T03:31:27.327Z,3.50
2023-11-26T03:33:55.657Z,3.50
2023-11-26T03:36:23.904Z,3.60
2023-11-26T03:38:51.971Z,3.60
2023-11-26T03:41:20.577Z,3.60
2023-11-26T03:43:48.694Z,3.60
2023-11-26T03:46:16.762Z,3.60
2023-11-26T03:48:46.791Z,3.60
2023-11-26T03:51:19.029Z,3.60
2023-11-26T03:53:47.098Z,3.50
2023-11-26T03:56:15.685Z,3.50
2023-11-26T03:58:43.845Z,3.50
2023-11-26T04:01:12.969Z,3.50
2023-11-26T04:03:41.465Z,3.50
2023-11-26T04:06:11.069Z,3.50
2023-11-26T04:08:39.092Z,3.50
2023-11-26T04:11:07.442Z,3.50
2023-11-26T04:13:35.489Z,3.50
2023-11-26T04:16:06.090Z,3.50
2023-11-26T04:18:35.142Z,3.50
2023-11-26T04:21:03.284Z,3.50
2023-11-26T04:23:32.757Z,3.50
2023-11-26T04:26:01.847Z,3.50
2023-11-26T04:28:29.969Z,3.60
2023-11-26T04:30:58.029Z,3.60
2023-11-26T04:33:26.199Z,3.50
2023-11-26T04:35:54.259Z,3.60
2023-11-26T04:38:22.651Z,3.60
2023-11-26T04:40:52.947Z,3.60
2023-11-26T04:43:20.955Z,3.60
2023-11-26T04:45:48.996Z,3.60
2023-11-26T04:48:17.045Z,3.60
2023-11-26T04:50:46.083Z,3.70
2023-11-26T04:53:14.150Z,3.70
2023-11-26T04:55:42.320Z,3.70
2023-11-26T04:58:12.468Z,3.70
2023-11-26T05:00:40.735Z,3.70
2023-11-26T05:03:09.023Z,3.70
2023-11-26T05:05:37.289Z,3.70
2023-11-26T05:08:06.665Z,3.70
2023-11-26T05:10:34.730Z,3.70
2023-11-26T05:13:02.751Z,3.70
2023-11-26T05:15:32.135Z,3.70
2023-11-26T05:18:00.374Z,3.70
2023-11-26T05:20:28.494Z,3.70
2023-11-26T05:22:57.793Z,3.70
2023-11-26T05:25:26.719Z,3.70
2023-11-26T05:27:54.795Z,3.70
2023-11-26T05:30:23.011Z,3.70
2023-11-26T05:32:52.467Z,3.70
2023-11-26T05:35:20.894Z,3.70
2023-11-26T05:37:49.089Z,3.70
2023-11-26T05:40:17.229Z,3.60
2023-11-26T05:42:45.376Z,3.70
2023-11-26T05:45:13.691Z,3.60
2023-11-26T05:47:42.315Z,3.60
2023-11-26T05:50:12.665Z,3.60
2023-11-26T05:52:41.659Z,3.60
2023-11-26T05:55:11.514Z,3.60
2023-11-26T05:57:39.597Z,3.60
2023-11-26T06:00:08.793Z,3.60
2023-11-26T06:02:36.857Z,3.60
2023-11-26T06:05:05.137Z,3.60
2023-11-26T06:07:35.282Z,3.60
2023-11-26T06:10:03.362Z,3.60
2023-11-26T06:12:32.717Z,3.50
2023-11-26T06:15:00.749Z,3.50
2023-11-26T06:17:28.762Z,3.40
2023-11-26T06:19:56.927Z,3.40
2023-11-26T06:22:24.979Z,3.30
2023-11-26T06:24:54.582Z,3.40
2023-11-26T06:27:22.973Z,3.30
2023-11-26T06:29:51.002Z,3.30
2023-11-26T06:32:19.283Z,3.20
2023-11-26T06:34:47.343Z,3.20
2023-11-26T06:37:15.369Z,3.10
2023-11-26T06:39:43.409Z,3.10
2023-11-26T06:42:13.128Z,3.00
2023-11-26T06:44:41.163Z,2.90
2023-11-26T06:47:09.220Z,2.90
2023-11-26T06:49:37.304Z,2.90
2023-11-26T06:52:05.473Z,2.80
2023-11-26T06:54:34.354Z,2.80
2023-11-26T06:57:02.432Z,2.80
2023-11-26T06:59:31.800Z,2.80
2023-11-26T07:01:59.912Z,2.70
2023-11-26T07:04:28.103Z,2.70
2023-11-26T07:06:56.176Z,2.60
2023-11-26T07:09:24.263Z,2.60
2023-11-26T07:11:52.312Z,2.60
2023-11-26T07:14:20.410Z,2.50
2023-11-26T07:16:53.537Z,2.50
2023-11-26T07:19:22.083Z,2.50
2023-11-26T07:21:50.701Z,2.50
2023-11-26T07:24:18.769Z,2.50
2023-11-26T07:26:46.919Z,2.50
2023-11-26T07:29:14.969Z,2.50
2023-11-26T07:31:43.108Z,2.50
2023-11-26T07:34:14.199Z,2.50
2023-11-26T07:36:43.542Z,2.50
2023-11-26T07:39:11.574Z,2.40
2023-11-26T07:41:39.954Z,2.40
2023-11-26T07:44:11.298Z,2.40
2023-11-26T07:46:39.472Z,2.40
2023-11-26T07:49:07.849Z,2.40
2023-11-26T07:51:38.704Z,2.50
2023-11-26T07:54:11.618Z,2.40
2023-11-26T07:56:44.989Z,2.50
2023-11-26T07:59:13.000Z,2.40
2023-11-26T08:01:40.992Z,2.40
2023-11-26T08:04:09.129Z,2.40
2023-11-26T08:06:41.901Z,2.40
2023-11-26T08:09:12.165Z,2.40
2023-11-26T08:11:44.929Z,2.40
2023-11-26T08:14:13.661Z,2.40
2023-11-26T08:16:42.123Z,2.40
2023-11-26T08:19:14.265Z,2.40
2023-11-26T08:21:43.806Z,2.50
2023-11-26T08:24:17.077Z,2.40
2023-11-26T08:26:47.488Z,2.40
2023-11-26T08:29:19.616Z,2.40
2023-11-26T08:31:49.552Z,2.40
2023-11-26T08:34:18.410Z,2.30
2023-11-26T08:36:48.240Z,2.30
2023-11-26T08:39:20.984Z,2.40
2023-11-26T08:41:51.617Z,2.50
2023-11-26T08:44:19.670Z,2.50
2023-11-26T08:46:48.787Z,2.50
2023-11-26T08:49:21.911Z,2.50
2023-11-26T08:51:51.529Z,2.60
2023-11-26T08:54:21.430Z,2.60
2023-11-26T08:56:50.497Z,2.70
2023-11-26T08:59:19.225Z,2.70
2023-11-26T09:01:48.071Z,2.70
2023-11-26T09:04:16.306Z,2.70
2023-11-26T09:06:44.473Z,2.70
2023-11-26T09:09:13.900Z,2.70
2023-11-26T09:11:41.953Z,2.70
2023-11-26T09:14:10.040Z,2.70
2023-11-26T09:16:38.750Z,2.80
2023-11-26T09:19:07.581Z,2.80
2023-11-26T09:21:35.678Z,2.80
2023-11-26T09:24:03.829Z,2.80
2023-11-26T09:26:33.236Z,2.80
2023-11-26T09:29:01.236Z,2.80
2023-11-26T09:31:29.799Z,2.80
2023-11-26T09:33:58.169Z,2.80
2023-11-26T09:36:26.285Z,2.90
2023-11-26T09:38:54.599Z,2.90
2023-11-26T09:41:22.936Z,2.90
2023-11-26T09:43:52.825Z,2.90
2023-11-26T09:46:22.299Z,2.90
2023-11-26T09:48:53.192Z,2.80
2023-11-26T09:51:24.704Z,2.90
2023-11-26T09:53:53.506Z,2.90
2023-11-26T09:56:21.651Z,2.90
2023-11-26T09:58:49.786Z,2.90
2023-11-26T10:01:19.244Z,3.00
2023-11-26T10:04:00.602Z,3.00
2023-11-26T10:06:30.178Z,3.00
2023-11-26T10:09:01.150Z,3.00
2023-11-26T10:11:29.559Z,3.00
2023-11-26T10:13:58.638Z,3.00
2023-11-26T10:16:34.737Z,3.00
2023-11-26T10:19:03.805Z,3.00
2023-11-26T10:21:33.893Z,3.00
2023-11-26T10:24:02.811Z,3.10
2023-11-26T10:26:33.251Z,3.10
2023-11-26T10:29:04.109Z,3.10
2023-11-26T10:31:33.567Z,3.10
2023-11-26T10:34:12.787Z,3.10
2023-11-26T10:36:41.056Z,3.10
2023-11-26T10:39:11.000Z,3.10
2023-11-26T10:41:39.874Z,3.10
2023-11-26T10:44:10.520Z,3.10
2023-11-26T10:46:42.375Z,3.20
2023-11-26T10:49:17.280Z,3.20
2023-11-26T10:51:48.900Z,3.30
2023-11-26T10:54:27.117Z,3.30
2023-11-26T10:56:59.319Z,3.30
2023-11-26T10:59:32.002Z,3.30
2023-11-26T11:02:05.114Z,3.40
2023-11-26T11:04:39.377Z,3.40
2023-11-26T11:07:08.766Z,3.40
2023-11-26T11:09:46.291Z,3.50
2023-11-26T11:12:18.737Z,3.60
2023-11-26T11:14:47.011Z,3.70
2023-11-26T11:17:31.182Z,3.80
2023-11-26T11:19:59.679Z,3.90
2023-11-26T11:22:37.972Z,3.80
2023-11-26T11:25:10.727Z,3.80
2023-11-26T11:27:52.931Z,3.80
2023-11-26T11:30:52.832Z,3.90
2023-11-26T11:33:23.111Z,4.00
2023-11-26T11:35:51.642Z,4.00
2023-11-26T11:38:21.934Z,4.10
2023-11-26T11:41:14.556Z,4.10
2023-11-26T11:43:44.148Z,4.10
2023-11-26T11:46:48.546Z,4.10
2023-11-26T11:49:20.396Z,4.00
2023-11-26T11:51:48.604Z,4.00
2023-11-26T11:54:45.972Z,4.00
2023-11-26T11:57:16.353Z,4.10
2023-11-26T11:59:45.091Z,4.10
2023-11-26T12:02:14.241Z,4.10
2023-11-26T12:04:45.764Z,4.10
2023-11-26T12:07:13.956Z,4.10
2023-11-26T12:09:44.080Z,4.10
2023-11-26T12:12:12.192Z,4.20
2023-11-26T12:14:40.448Z,4.20
2023-11-26T12:17:09.581Z,4.20
2023-11-26T12:19:39.005Z,4.20
2023-11-26T12:22:09.024Z,4.20
2023-11-26T12:24:38.366Z,4.20
2023-11-26T12:27:06.906Z,4.20
2023-11-26T12:29:37.045Z,4.20
2023-11-26T12:32:09.202Z,4.30
2023-11-26T12:34:39.960Z,4.20
2023-11-26T12:37:11.940Z,4.30
2023-11-26T12:39:44.018Z,4.30
2023-11-26T12:42:12.354Z,4.40
2023-11-26T12:44:41.717Z,4.40
2023-11-26T12:47:11.827Z,4.40
2023-11-26T12:49:41.651Z,4.40
2023-11-26T12:52:11.909Z,4.30
2023-11-26T12:54:41.588Z,4.40
2023-11-26T12:57:09.731Z,4.40
2023-11-26T12:59:47.814Z,4.50
2023-11-26T13:02:17.651Z,4.50
2023-11-26T13:04:45.835Z,4.50
2023-11-26T13:07:17.262Z,4.50
2023-11-26T13:09:52.157Z,4.50
2023-11-26T13:12:21.331Z,4.50
2023-11-26T13:14:50.328Z,4.40
2023-11-26T13:17:21.043Z,4.40
2023-11-26T13:19:50.746Z,4.40
2023-11-26T13:22:21.645Z,4.40
2023-11-26T13:24:51.090Z,4.30
2023-11-26T13:27:19.146Z,4.30
2023-11-26T13:29:47.371Z,4.40
2023-11-26T13:32:15.355Z,4.40
2023-11-26T13:34:44.840Z,4.40
2023-11-26T13:37:13.864Z,4.40
2023-11-26T13:39:44.946Z,4.50
2023-11-26T13:42:13.514Z,4.50
2023-11-26T13:44:41.561Z,4.50
2023-11-26T13:47:09.633Z,4.50
2023-11-26T13:49:37.675Z,4.60
2023-11-26T13:52:06.838Z,4.60
2023-11-26T13:54:34.936Z,4.50
2023-11-26T13:57:04.867Z,4.50
2023-11-26T13:59:32.872Z,4.50
2023-11-26T14:02:01.027Z,4.50
2023-11-26T14:04:29.134Z,4.50
2023-11-26T14:06:59.032Z,4.60
2023-11-26T14:09:27.181Z,4.60
2023-11-26T14:11:55.339Z,4.50
2023-11-26T14:14:24.885Z,4.50
2023-11-26T14:16:52.991Z,4.50
2023-11-26T14:19:21.490Z,4.50
2023-11-26T14:21:49.714Z,4.50
2023-11-26T14:24:17.744Z,4.50
2023-11-26T14:26:45.816Z,4.50
2023-11-26T14:29:13.812Z,4.40
2023-11-26T14:31:43.243Z,4.50
2023-11-26T14:34:11.525Z,4.50
2023-11-26T14:36:39.800Z,4.40
2023-11-26T14:39:08.806Z,4.40
2023-11-26T14:41:37.048Z,4.40
2023-11-26T14:44:05.123Z,4.30
2023-11-26T14:46:33.229Z,4.30
2023-11-26T14:49:04.310Z,4.30
2023-11-26T14:51:33.373Z,4.30
2023-11-26T14:54:02.193Z,4.30
2023-11-26T14:56:31.526Z,4.30
2023-11-26T14:58:59.593Z,4.30
2023-11-26T15:01:27.835Z,4.30
2023-11-26T15:03:55.959Z,4.30
2023-11-26T15:06:25.593Z,4.30
2023-11-26T15:08:54.113Z,4.30
2023-11-26T15:11:22.308Z,4.30
2023-11-26T15:13:50.804Z,4.20
2023-11-26T15:16:18.936Z,4.20
2023-11-26T15:18:49.125Z,4.20
2023-11-26T15:21:18.619Z,4.10
2023-11-26T15:23:48.373Z,4.10
2023-11-26T15:26:20.112Z,4.10
2023-11-26T15:28:48.624Z,4.10
2023-11-26T15:31:18.695Z,4.00
2023-11-26T15:33:47.261Z,4.00
2023-11-26T15:36:18.197Z,4.00
2023-11-26T15:38:48.797Z,4.00
2023-11-26T15:41:21.653Z,3.90
2023-11-26T15:43:50.323Z,3.90
2023-11-26T15:46:22.513Z,3.90
2023-11-26T15:48:50.879Z,3.80
2023-11-26T15:51:19.138Z,3.90
2023-11-26T15:54:01.946Z,3.80
2023-11-26T15:56:36.059Z,3.80
2023-11-26T15:59:05.393Z,3.90
2023-11-26T16:01:34.276Z,3.80
2023-11-26T16:04:02.985Z,3.80
2023-11-26T16:06:31.906Z,3.80
2023-11-26T16:09:01.976Z,3.80
2023-11-26T16:11:32.063Z,3.90
2023-11-26T16:14:01.411Z,3.90
2023-11-26T16:16:30.184Z,3.90
2023-11-26T16:18:58.305Z,3.90
2023-11-26T16:21:28.479Z,3.80
2023-11-26T16:23:58.944Z,3.90
2023-11-26T16:26:29.192Z,3.90
2023-11-26T16:28:57.914Z,3.80
2023-11-26T16:31:26.111Z,3.80
2023-11-26T16:33:54.967Z,3.80
2023-11-26T16:36:24.454Z,3.80
2023-11-26T16:38:53.919Z,3.80
2023-11-26T16:41:22.310Z,3.80
2023-11-26T16:43:53.696Z,3.80
2023-11-26T16:46:22.282Z,3.80
2023-11-26T16:48:50.517Z,3.80
2023-11-26T16:51:18.765Z,3.80
2023-11-26T16:53:47.042Z,3.90
2023-11-26T16:56:15.841Z,3.90
2023-11-26T16:58:44.199Z,3.90
2023-11-26T17:01:13.677Z,3.90
2023-11-26T17:03:42.086Z,3.90
2023-11-26T17:06:10.918Z,3.90
2023-11-26T17:08:38.994Z,3.90
2023-11-26T17:11:07.330Z,3.90
2023-11-26T17:13:35.425Z,3.90
2023-11-26T17:16:03.776Z,3.90
2023-11-26T17:18:35.097Z,3.90
2023-11-26T17:21:03.163Z,3.90
2023-11-26T17:23:31.161Z,3.90
2023-11-26T17:25:59.673Z,3.90
2023-11-26T17:28:28.708Z,3.90
2023-11-26T17:30:56.989Z,4.00
2023-11-26T17:33:25.490Z,4.00
2023-11-26T17:35:55.550Z,4.00
2023-11-26T17:38:23.867Z,4.00
2023-11-26T17:40:52.259Z,4.00
2023-11-26T17:43:21.202Z,4.00
2023-11-26T17:45:49.359Z,4.00
2023-11-26T17:48:17.405Z,4.00
2023-11-26T17:50:45.449Z,4.00
2023-11-26T17:53:18.101Z,4.00
2023-11-26T17:55:46.457Z,4.00
2023-11-26T17:58:14.841Z,4.00
2023-11-26T18:00:44.078Z,4.00
2023-11-26T18:03:12.490Z,4.00
2023-11-26T18:05:40.608Z,4.00
2023-11-26T18:08:08.683Z,4.00
2023-11-26T18:10:38.626Z,4.00
2023-11-26T18:13:06.873Z,4.00
2023-11-26T18:15:34.944Z,4.00
2023-11-26T18:18:02.997Z,4.00
2023-11-26T18:20:31.445Z,4.00
2023-11-26T18:23:02.422Z,4.00
2023-11-26T18:25:31.993Z,4.00
2023-11-26T18:28:01.516Z,4.00
2023-11-26T18:30:30.019Z,4.00
2023-11-26T18:32:58.083Z,4.00
2023-11-26T18:35:26.136Z,4.00
2023-11-26T18:37:55.705Z,4.00
2023-11-26T18:40:24.019Z,4.00
2023-11-26T18:42:53.290Z,4.00
2023-11-26T18:45:23.968Z,4.00
2023-11-26T18:47:52.623Z,3.90
2023-11-26T18:50:20.836Z,3.90
2023-11-26T18:52:48.892Z,3.90
2023-11-26T18:55:17.383Z,3.90
2023-11-26T18:57:45.854Z,3.90
2023-11-26T19:00:15.274Z,3.90
2023-11-26T19:02:44.756Z,3.90
2023-11-26T19:05:14.014Z,3.90
2023-11-26T19:07:41.071Z,3.90
2023-11-26T19:10:10.079Z,3.90
2023-11-26T19:12:38.166Z,3.90
2023-11-26T19:15:07.619Z,3.90
2023-11-26T19:17:35.833Z,3.90
2023-11-26T19:20:06.198Z,4.00
2023-11-26T19:22:34.356Z,4.00
2023-11-26T19:25:04.416Z,4.00
2023-11-26T19:27:32.461Z,4.00
2023-11-26T19:30:00.540Z,4.00
2023-11-26T19:32:29.608Z,4.00
2023-11-26T19:34:59.923Z,3.90
2023-11-26T19:37:29.656Z,3.90
2023-11-26T19:39:57.827Z,3.90
2023-11-26T19:42:27.622Z,3.90
2023-11-26T19:44:55.985Z,3.90
2023-11-26T19:47:24.040Z,3.90
2023-11-26T19:49:53.287Z,4.00
2023-11-26T19:52:21.297Z,4.00
2023-11-26T19:54:50.695Z,3.90
2023-11-26T19:57:18.955Z,3.90
2023-11-26T19:59:46.954Z,4.00
2023-11-26T20:02:15.034Z,4.00
2023-11-26T20:04:43.148Z,4.00
2023-11-26T20:07:11.204Z,4.00
2023-11-26T20:09:39.292Z,3.90
2023-11-26T20:12:09.526Z,3.90
2023-11-26T20:14:37.533Z,3.90
2023-11-26T20:17:08.051Z,3.90
2023-11-26T20:19:36.373Z,3.90
2023-11-26T20:22:04.540Z,3.90
2023-11-26T20:24:34.549Z,3.90
2023-11-26T20:27:04.175Z,3.90
2023-11-26T20:29:34.288Z,3.90
2023-11-26T20:32:02.374Z,3.90
2023-11-26T20:34:30.451Z,3.90
2023-11-26T20:36:58.514Z,3.90
2023-11-26T20:39:26.753Z,3.90
2023-11-26T20:41:55.354Z,3.90
2023-11-26T20:44:23.618Z,3.90
2023-11-26T20:46:54.046Z,3.90
2023-11-26T20:49:22.826Z,4.00
2023-11-26T20:51:52.114Z,4.00
2023-11-26T20:54:20.157Z,4.00
2023-11-26T20:56:48.187Z,4.00
2023-11-26T20:59:16.169Z,4.00
2023-11-26T21:01:48.142Z,4.00
2023-11-26T21:04:17.673Z,4.00
2023-11-26T21:06:45.762Z,4.00
2023-11-26T21:09:13.919Z,4.00
2023-11-26T21:11:45.149Z,4.00
2023-11-26T21:14:13.332Z,4.10
2023-11-26T21:16:41.390Z,4.10
2023-11-26T21:19:12.294Z,4.10
2023-11-26T21:21:42.484Z,4.10
2023-11-26T21:24:12.084Z,4.20
2023-11-26T21:26:40.439Z,4.20
2023-11-26T21:29:08.515Z,4.20
2023-11-26T21:31:39.494Z,4.20
2023-11-26T21:34:07.621Z,4.20
2023-11-26T21:36:35.728Z,4.20
2023-11-26T21:39:06.526Z,4.30
2023-11-26T21:41:34.540Z,4.30
2023-11-26T21:44:02.665Z,4.30
2023-11-26T21:46:36.185Z,4.30
2023-11-26T21:49:09.944Z,4.30
2023-11-26T21:51:38.858Z,4.30
2023-11-26T21:54:08.469Z,4.30
2023-11-26T21:56:36.813Z,4.30
2023-11-26T21:59:05.224Z,4.30
2023-11-26T22:01:33.523Z,4.30
2023-11-26T22:04:01.867Z,4.30
2023-11-26T22:06:30.055Z,4.30
2023-11-26T22:08:58.244Z,4.30
2023-11-26T22:11:27.705Z,4.30
2023-11-26T22:13:55.747Z,4.20
2023-11-26T22:16:24.115Z,4.20
2023-11-26T22:18:52.255Z,4.10
2023-11-26T22:21:21.520Z,4.10
2023-11-26T22:23:50.577Z,4.00
2023-11-26T22:26:18.801Z,4.00
2023-11-26T22:28:48.191Z,3.90
2023-11-26T22:31:18.938Z,3.90
2023-11-26T22:33:47.310Z,3.80
2023-11-26T22:36:21.182Z,3.80
2023-11-26T22:38:49.181Z,3.80
2023-11-26T22:41:25.035Z,3.70
2023-11-26T22:43:56.418Z,3.70
2023-11-26T22:46:26.394Z,3.70
2023-11-26T22:48:56.127Z,3.70
2023-11-26T22:51:24.589Z,3.60
2023-11-26T22:53:53.834Z,3.60
2023-11-26T22:56:25.733Z,3.60
2023-11-26T22:58:55.819Z,3.60
2023-11-26T23:01:24.748Z,3.60
2023-11-26T23:03:54.056Z,3.60
2023-11-26T23:06:22.670Z,3.50
2023-11-26T23:08:51.009Z,3.50
2023-11-26T23:11:19.857Z,3.50
2023-11-26T23:13:52.175Z,3.60
2023-11-26T23:16:22.417Z,3.60
2023-11-26T23:18:51.383Z,3.60
2023-11-26T23:21:19.508Z,3.60
2023-11-26T23:23:52.185Z,3.60
2023-11-26T23:26:21.503Z,3.60
2023-11-26T23:28:49.775Z,3.70
2023-11-26T23:31:18.668Z,3.70
2023-11-26T23:33:48.903Z,3.70
2023-11-26T23:36:17.286Z,3.80
2023-11-26T23:38:45.623Z,3.80
2023-11-26T23:41:13.696Z,3.80
2023-11-26T23:43:41.874Z,3.80
2023-11-26T23:46:10.512Z,3.80
2023-11-26T23:48:40.119Z,3.80
2023-11-26T23:51:09.977Z,3.80
2023-11-26T23:53:38.021Z,3.80
2023-11-26T23:56:07.454Z,3.80
2023-11-26T23:58:36.495Z,3.80
